createdAt,value
2023-03-06T00:00:36.514Z,9.50
2023-03-06T00:03:16.639Z,10.10
2023-03-06T00:05:44.062Z,11.10
2023-03-06T00:08:11.378Z,8.90
2023-03-06T00:10:38.690Z,14.80
2023-03-06T00:13:08.083Z,13.90
2023-03-06T00:15:34.912Z,12.30
2023-03-06T00:18:05.753Z,15.70
2023-03-06T00:20:34.105Z,14.30
2023-03-06T00:23:00.938Z,12.90
2023-03-06T00:25:27.834Z,10.20
2023-03-06T00:27:54.582Z,11.00
2023-03-06T00:30:24.113Z,9.20
2023-03-06T00:32:52.367Z,15.30
2023-03-06T00:35:19.207Z,12.20
2023-03-06T00:37:46.242Z,11.30
2023-03-06T00:40:15.849Z,15.90
2023-03-06T00:42:42.943Z,12.30
2023-03-06T00:45:10.812Z,11.70
2023-03-06T00:47:39.345Z,10.00
2023-03-06T00:50:07.232Z,11.70
2023-03-06T00:52:34.556Z,10.30
2023-03-06T00:55:02.075Z,10.90
2023-03-06T00:57:29.049Z,9.80
2023-03-06T00:59:57.348Z,11.10
2023-03-06T01:02:24.687Z,13.70
2023-03-06T01:04:54.943Z,11.90
2023-03-06T01:07:21.934Z,10.30
2023-03-06T01:09:50.030Z,10.60
2023-03-06T01:12:17.047Z,13.70
2023-03-06T01:14:43.986Z,10.30
2023-03-06T01:17:11.118Z,10.50
2023-03-06T01:19:37.912Z,17.50
2023-03-06T01:22:04.819Z,20.00
2023-03-06T01:24:31.736Z,15.30
2023-03-06T01:26:58.530Z,15.60
2023-03-06T01:29:25.966Z,13.60
2023-03-06T01:31:52.776Z,12.00
2023-03-06T01:34:19.559Z,10.30
2023-03-06T01:36:46.327Z,9.20
2023-03-06T01:39:13.110Z,7.40
2023-03-06T01:41:39.842Z,18.80
2023-03-06T01:44:06.620Z,15.20
2023-03-06T01:46:41.516Z,15.10
2023-03-06T01:49:20.690Z,9.30
2023-03-06T01:51:52.815Z,14.40
2023-03-06T01:54:30.893Z,6.90
2023-03-06T01:57:06.848Z,11.20
2023-03-06T01:59:37.240Z,9.10
2023-03-06T02:02:06.101Z,8.50
2023-03-06T02:04:34.019Z,10.30
2023-03-06T02:07:04.478Z,8.90
2023-03-06T02:09:34.301Z,13.70
2023-03-06T02:12:03.787Z,10.60
2023-03-06T02:14:30.669Z,8.70
2023-03-06T02:16:57.599Z,10.90
2023-03-06T02:19:43.034Z,11.20
2023-03-06T02:22:10.731Z,10.00
2023-03-06T02:24:53.562Z,11.60
2023-03-06T02:27:20.669Z,6.60
2023-03-06T02:29:47.521Z,10.90
2023-03-06T02:32:14.826Z,11.00
2023-03-06T02:34:49.940Z,7.70
2023-03-06T02:37:16.794Z,11.30
2023-03-06T02:39:53.697Z,9.80
2023-03-06T02:42:24.677Z,8.30
2023-03-06T02:44:55.415Z,7.40
2023-03-06T02:47:22.286Z,10.80
2023-03-06T02:49:49.497Z,8.90
2023-03-06T02:52:17.974Z,13.10
2023-03-06T02:54:44.805Z,11.30
2023-03-06T02:57:12.129Z,8.40
2023-03-06T02:59:39.301Z,13.60
2023-03-06T03:02:06.788Z,7.00
2023-03-06T03:04:34.460Z,9.80
2023-03-06T03:07:01.828Z,10.30
2023-03-06T03:09:28.981Z,12.70
2023-03-06T03:11:55.733Z,8.80
2023-03-06T03:14:24.300Z,11.50
2023-03-06T03:16:51.627Z,12.10
2023-03-06T03:19:18.461Z,11.20
2023-03-06T03:21:46.464Z,13.20
2023-03-06T03:24:13.510Z,15.90
2023-03-06T03:26:41.883Z,10.80
2023-03-06T03:29:12.808Z,13.70
2023-03-06T03:31:39.787Z,12.00
2023-03-06T03:34:07.858Z,11.00
2023-03-06T03:36:37.650Z,16.30
2023-03-06T03:39:05.730Z,14.50
2023-03-06T03:41:33.193Z,16.00
2023-03-06T03:44:03.330Z,11.70
2023-03-06T03:46:30.327Z,11.90
2023-03-06T03:48:58.043Z,11.30
2023-03-06T03:51:24.845Z,9.30
2023-03-06T03:53:55.483Z,9.20
2023-03-06T03:56:23.594Z,10.40
2023-03-06T03:59:13.090Z,15.60
2023-03-06T04:01:46.471Z,12.30
2023-03-06T04:04:13.752Z,10.70
2023-03-06T04:06:41.449Z,9.70
2023-03-06T04:09:08.384Z,13.10
2023-03-06T04:11:35.501Z,15.20
2023-03-06T04:14:03.004Z,11.40
2023-03-06T04:16:30.935Z,13.30
2023-03-06T04:18:57.874Z,12.40
2023-03-06T04:21:24.851Z,15.20
2023-03-06T04:23:52.296Z,23.50
2023-03-06T04:26:20.126Z,29.20
2023-03-06T04:28:47.214Z,24.00
2023-03-06T04:31:14.780Z,25.90
2023-03-06T04:33:42.922Z,21.50
2023-03-06T04:36:25.004Z,19.90
2023-03-06T04:38:53.135Z,15.90
2023-03-06T04:41:20.238Z,13.70
2023-03-06T04:43:47.064Z,17.40
2023-03-06T04:46:13.871Z,26.80
2023-03-06T04:48:40.728Z,18.00
2023-03-06T04:51:10.184Z,21.20
2023-03-06T04:53:36.987Z,23.50
2023-03-06T04:56:04.390Z,28.00
2023-03-06T04:58:31.282Z,31.00
2023-03-06T05:00:58.192Z,37.40
2023-03-06T05:03:25.010Z,36.40
2023-03-06T05:05:51.926Z,28.50
2023-03-06T05:08:18.850Z,23.20
2023-03-06T05:10:46.476Z,22.00
2023-03-06T05:13:13.380Z,19.90
2023-03-06T05:15:41.031Z,22.40
2023-03-06T05:18:07.873Z,19.00
2023-03-06T05:20:34.911Z,19.00
2023-03-06T05:23:01.693Z,20.70
2023-03-06T05:25:28.531Z,20.30
2023-03-06T05:27:55.556Z,22.90
2023-03-06T05:30:22.908Z,12.60
2023-03-06T05:32:50.075Z,19.50
2023-03-06T05:35:20.051Z,20.30
2023-03-06T05:37:47.837Z,20.80
2023-03-06T05:40:16.491Z,20.70
2023-03-06T05:42:43.451Z,19.70
2023-03-06T05:45:11.376Z,16.50
2023-03-06T05:47:38.172Z,30.10
2023-03-06T05:50:07.818Z,62.90
2023-03-06T05:52:34.662Z,29.80
2023-03-06T05:55:01.756Z,16.20
2023-03-06T05:57:28.615Z,26.80
2023-03-06T05:59:55.408Z,23.70
2023-03-06T06:02:22.335Z,23.80
2023-03-06T06:04:49.189Z,26.30
2023-03-06T06:07:17.047Z,27.20
2023-03-06T06:09:45.123Z,22.90
2023-03-06T06:12:13.338Z,23.90
2023-03-06T06:14:40.276Z,23.00
2023-03-06T06:17:07.163Z,23.70
2023-03-06T06:19:34.025Z,23.00
2023-03-06T06:22:02.281Z,22.70
2023-03-06T06:24:30.263Z,22.80
2023-03-06T06:26:58.522Z,20.50
2023-03-06T06:29:27.464Z,18.60
2023-03-06T06:31:55.305Z,22.00
2023-03-06T06:34:22.997Z,18.80
2023-03-06T06:36:53.263Z,17.20
2023-03-06T06:39:22.192Z,19.80
2023-03-06T06:42:03.013Z,20.10
2023-03-06T06:44:37.732Z,19.40
2023-03-06T06:47:23.638Z,17.90
2023-03-06T06:49:52.824Z,18.60
2023-03-06T06:52:20.020Z,23.50
2023-03-06T06:54:47.597Z,23.40
2023-03-06T06:57:14.547Z,27.50
2023-03-06T06:59:41.746Z,19.30
2023-03-06T07:02:11.679Z,22.40
2023-03-06T07:04:44.253Z,16.00
2023-03-06T07:07:16.169Z,25.70
2023-03-06T07:09:43.104Z,18.30
2023-03-06T07:12:10.007Z,20.30
2023-03-06T07:14:36.934Z,24.80
2023-03-06T07:17:03.721Z,25.10
2023-03-06T07:19:30.866Z,22.40
2023-03-06T07:21:59.614Z,20.80
2023-03-06T07:24:26.676Z,18.30
2023-03-06T07:26:53.978Z,20.80
2023-03-06T07:29:21.482Z,17.10
2023-03-06T07:31:48.264Z,20.90
2023-03-06T07:34:15.538Z,20.30
2023-03-06T07:36:42.393Z,23.80
2023-03-06T07:39:09.914Z,21.00
2023-03-06T07:41:36.703Z,19.40
2023-03-06T07:44:03.460Z,21.50
2023-03-06T07:46:30.330Z,27.10
2023-03-06T07:48:57.785Z,27.90
2023-03-06T07:51:24.712Z,20.80
2023-03-06T07:53:51.583Z,17.10
2023-03-06T07:56:18.427Z,17.60
2023-03-06T07:58:46.356Z,15.20
2023-03-06T08:01:19.449Z,13.90
2023-03-06T08:03:47.173Z,12.90
2023-03-06T08:06:17.270Z,18.20
2023-03-06T08:08:46.576Z,15.10
2023-03-06T08:11:15.713Z,15.10
2023-03-06T08:13:42.846Z,17.30
2023-03-06T08:16:10.606Z,15.00
2023-03-06T08:18:39.266Z,15.20
2023-03-06T08:21:09.137Z,15.10
2023-03-06T08:23:37.660Z,15.00
2023-03-06T08:26:07.513Z,13.90
2023-03-06T08:28:34.462Z,13.50
2023-03-06T08:31:12.006Z,13.80
2023-03-06T08:33:40.267Z,15.20
2023-03-06T08:36:07.581Z,14.60
2023-03-06T08:38:34.556Z,13.50
2023-03-06T08:41:01.415Z,17.10
2023-03-06T08:43:28.237Z,19.50
2023-03-06T08:45:57.439Z,15.80
2023-03-06T08:48:24.696Z,13.30
2023-03-06T08:50:52.281Z,13.00
2023-03-06T08:53:19.196Z,14.00
2023-03-06T08:55:46.060Z,22.10
2023-03-06T08:58:12.959Z,14.40
2023-03-06T09:00:39.894Z,11.30
2023-03-06T09:03:06.726Z,17.90
2023-03-06T09:05:33.735Z,13.20
2023-03-06T09:08:00.594Z,10.50
2023-03-06T09:10:28.228Z,11.00
2023-03-06T09:12:55.430Z,10.20
2023-03-06T09:15:23.153Z,7.70
2023-03-06T09:17:50.980Z,13.80
2023-03-06T09:20:18.743Z,13.00
2023-03-06T09:22:46.436Z,14.90
2023-03-06T09:25:14.368Z,11.50
2023-03-06T09:27:41.561Z,8.80
2023-03-06T09:30:10.890Z,10.10
2023-03-06T09:32:37.714Z,11.00
2023-03-06T09:35:05.103Z,12.10
2023-03-06T09:37:31.997Z,23.10
2023-03-06T09:39:58.836Z,13.20
2023-03-06T09:42:27.884Z,14.10
2023-03-06T09:44:58.516Z,9.00
2023-03-06T09:47:47.081Z,10.70
2023-03-06T09:50:38.060Z,8.30
2023-03-06T09:53:17.095Z,9.10
2023-03-06T09:55:51.000Z,10.40
2023-03-06T09:58:25.200Z,7.50
2023-03-06T10:01:05.276Z,7.00
2023-03-06T10:03:54.919Z,6.00
2023-03-06T10:06:30.841Z,6.90
2023-03-06T10:09:03.038Z,6.00
2023-03-06T10:11:43.068Z,7.70
2023-03-06T10:14:28.748Z,8.30
2023-03-06T10:16:56.592Z,8.10
2023-03-06T10:19:31.138Z,5.60
2023-03-06T10:22:37.270Z,8.10
2023-03-06T10:25:16.386Z,8.00
2023-03-06T10:27:48.326Z,8.40
2023-03-06T10:30:27.938Z,6.90
2023-03-06T10:33:06.961Z,7.00
2023-03-06T10:35:44.803Z,6.50
2023-03-06T10:38:31.769Z,6.60
2023-03-06T10:41:10.903Z,6.90
2023-03-06T10:43:43.078Z,5.70
2023-03-06T10:46:26.955Z,6.30
2023-03-06T10:49:01.951Z,7.60
2023-03-06T10:51:30.670Z,8.40
2023-03-06T10:54:03.608Z,7.90
2023-03-06T10:56:39.399Z,8.00
2023-03-06T10:59:17.293Z,9.20
2023-03-06T11:01:50.030Z,9.90
2023-03-06T11:04:37.096Z,6.20
2023-03-06T11:07:09.866Z,6.40
2023-03-06T11:09:37.291Z,10.40
2023-03-06T11:12:25.985Z,11.00
2023-03-06T11:15:23.030Z,11.70
2023-03-06T11:17:53.009Z,8.20
2023-03-06T11:20:52.114Z,7.80
2023-03-06T11:23:44.083Z,7.70
2023-03-06T11:26:17.169Z,9.70
2023-03-06T11:29:07.249Z,7.20
2023-03-06T11:31:53.947Z,9.90
2023-03-06T11:34:36.091Z,8.90
2023-03-06T11:37:30.966Z,10.70
2023-03-06T11:40:15.307Z,7.10
2023-03-06T11:45:46.123Z,9.20
2023-03-06T11:48:18.885Z,9.80
2023-03-06T11:50:48.724Z,7.10
2023-03-06T11:53:16.894Z,9.30
2023-03-06T11:56:14.021Z,9.20
2023-03-06T11:59:01.812Z,8.80
2023-03-06T12:02:10.341Z,6.50
2023-03-06T12:05:26.595Z,6.20
2023-03-06T12:08:12.553Z,8.40
2023-03-06T12:10:51.967Z,12.90
2023-03-06T12:13:49.728Z,9.00
2023-03-06T12:16:24.497Z,8.70
2023-03-06T12:19:30.703Z,7.70
2023-03-06T12:22:18.874Z,9.90
2023-03-06T12:25:10.981Z,9.70
2023-03-06T12:27:51.134Z,9.90
2023-03-06T12:30:20.974Z,10.90
2023-03-06T12:33:14.155Z,10.10
2023-03-06T12:35:54.195Z,8.40
2023-03-06T12:38:51.201Z,5.90
2023-03-06T12:41:20.968Z,6.10
2023-03-06T12:44:01.336Z,5.90
2023-03-06T12:46:30.025Z,6.80
2023-03-06T12:49:11.185Z,5.60
2023-03-06T12:51:40.233Z,4.70
2023-03-06T12:54:10.919Z,8.90
2023-03-06T12:56:39.441Z,6.00
2023-03-06T12:59:06.272Z,6.30
2023-03-06T13:01:50.946Z,4.30
2023-03-06T13:04:36.724Z,7.00
2023-03-06T13:07:12.757Z,9.60
2023-03-06T13:10:09.336Z,4.70
2023-03-06T13:12:45.416Z,5.20
2023-03-06T13:15:27.756Z,5.40
2023-03-06T13:17:56.336Z,4.40
2023-03-06T13:20:45.280Z,8.40
2023-03-06T13:23:37.796Z,5.00
2023-03-06T13:26:08.954Z,6.40
2023-03-06T13:28:49.977Z,6.10
2023-03-06T13:31:32.356Z,5.10
2023-03-06T13:34:03.832Z,5.40
2023-03-06T13:36:32.814Z,6.00
2023-03-06T13:39:10.141Z,5.90
2023-03-06T13:41:41.892Z,5.80
2023-03-06T13:44:24.120Z,6.90
2023-03-06T13:47:02.025Z,7.60
2023-03-06T13:49:29.640Z,4.70
2023-03-06T13:52:10.203Z,7.40
2023-03-06T13:54:53.913Z,5.80
2023-03-06T13:57:20.831Z,3.60
2023-03-06T14:00:03.059Z,3.50
2023-03-06T14:02:41.386Z,6.50
2023-03-06T14:05:17.172Z,6.50
2023-03-06T14:07:47.491Z,5.70
2023-03-06T14:10:14.401Z,5.10
2023-03-06T14:12:57.895Z,5.00
2023-03-06T14:15:36.568Z,8.50
2023-03-06T14:18:17.773Z,6.90
2023-03-06T14:20:50.152Z,7.60
2023-03-06T14:23:27.452Z,8.10
2023-03-06T14:26:02.352Z,6.90
2023-03-06T14:28:31.208Z,7.60
2023-03-06T14:31:00.146Z,8.30
2023-03-06T14:33:43.787Z,6.00
2023-03-06T14:36:15.602Z,7.10
2023-03-06T14:38:47.986Z,7.20
2023-03-06T14:41:23.822Z,6.00
2023-03-06T14:43:50.775Z,4.80
2023-03-06T14:46:22.214Z,7.40
2023-03-06T14:48:49.431Z,7.70
2023-03-06T14:51:22.475Z,5.20
2023-03-06T14:53:51.356Z,6.50
2023-03-06T14:56:21.783Z,5.70
2023-03-06T14:58:48.527Z,6.70
2023-03-06T15:01:16.325Z,9.10
2023-03-06T15:03:57.049Z,9.00
2023-03-06T15:06:27.020Z,6.50
2023-03-06T15:09:05.892Z,4.30
2023-03-06T15:11:58.265Z,6.60
2023-03-06T15:14:35.102Z,5.80
2023-03-06T15:17:15.346Z,7.20
2023-03-06T15:19:44.048Z,5.90
2023-03-06T15:22:38.191Z,5.00
2023-03-06T15:25:29.588Z,3.90
2023-03-06T15:28:25.677Z,3.90
2023-03-06T15:31:17.878Z,3.90
2023-03-06T15:33:59.777Z,4.40
2023-03-06T15:36:29.275Z,8.10
2023-03-06T15:38:56.256Z,7.50
2023-03-06T15:41:31.403Z,8.20
2023-03-06T15:44:00.893Z,6.70
2023-03-06T15:46:28.287Z,7.00
2023-03-06T15:48:58.315Z,5.40
2023-03-06T15:51:25.137Z,7.00
2023-03-06T15:53:54.987Z,7.40
2023-03-06T15:56:33.789Z,10.10
2023-03-06T15:59:01.263Z,6.10
2023-03-06T16:01:28.226Z,7.30
2023-03-06T16:03:55.380Z,5.80
2023-03-06T16:06:24.187Z,5.90
2023-03-06T16:08:51.715Z,4.60
2023-03-06T16:11:41.972Z,5.80
2023-03-06T16:14:23.047Z,24.00
2023-03-06T16:16:53.796Z,8.50
2023-03-06T16:19:27.767Z,8.40
2023-03-06T16:21:56.060Z,9.00
2023-03-06T16:24:24.409Z,13.00
2023-03-06T16:26:54.401Z,7.00
2023-03-06T16:29:24.023Z,7.50
2023-03-06T16:31:51.345Z,8.70
2023-03-06T16:34:20.937Z,7.20
2023-03-06T16:36:48.952Z,9.50
2023-03-06T16:39:20.113Z,9.60
2023-03-06T16:41:48.678Z,8.40
2023-03-06T16:44:15.459Z,8.40
2023-03-06T16:46:47.666Z,11.80
2023-03-06T16:49:20.517Z,44.30
2023-03-06T16:51:48.085Z,49.60
2023-03-06T16:54:15.431Z,28.10
2023-03-06T16:56:42.897Z,70.00
2023-03-06T16:59:11.116Z,58.40
2023-03-06T17:01:40.405Z,54.50
2023-03-06T17:04:07.505Z,66.10
2023-03-06T17:06:34.281Z,37.10
2023-03-06T17:09:01.155Z,34.60
2023-03-06T17:11:28.141Z,21.40
2023-03-06T17:13:54.974Z,30.20
2023-03-06T17:16:22.308Z,32.70
2023-03-06T17:18:49.348Z,40.70
2023-03-06T17:21:16.791Z,36.30
2023-03-06T17:23:43.891Z,32.50
2023-03-06T17:26:18.387Z,33.30
2023-03-06T17:28:46.365Z,25.60
2023-03-06T17:31:24.781Z,29.10
2023-03-06T17:33:58.704Z,31.60
2023-03-06T17:36:29.519Z,27.00
2023-03-06T17:38:58.188Z,22.00
2023-03-06T17:41:25.459Z,29.10
2023-03-06T17:43:54.844Z,20.50
2023-03-06T17:46:22.047Z,26.50
2023-03-06T17:48:49.112Z,36.70
2023-03-06T17:51:16.168Z,50.90
2023-03-06T17:53:43.016Z,62.60
2023-03-06T17:56:12.832Z,104.80
2023-03-06T17:58:39.638Z,105.00
2023-03-06T18:01:26.718Z,90.60
2023-03-06T18:03:54.004Z,54.00
2023-03-06T18:06:21.693Z,29.20
2023-03-06T18:08:52.292Z,39.70
2023-03-06T18:11:21.582Z,46.70
2023-03-06T18:13:48.817Z,64.20
2023-03-06T18:16:18.780Z,44.20
2023-03-06T18:18:46.670Z,31.70
2023-03-06T18:21:16.602Z,34.50
2023-03-06T18:23:43.652Z,36.80
2023-03-06T18:26:11.393Z,29.70
2023-03-06T18:28:41.773Z,21.80
2023-03-06T18:31:16.910Z,25.20
2023-03-06T18:33:44.829Z,25.60
2023-03-06T18:36:11.663Z,23.60
2023-03-06T18:38:39.707Z,34.00
2023-03-06T18:41:08.148Z,25.90
2023-03-06T18:43:36.074Z,31.90
2023-03-06T18:46:04.000Z,38.10
2023-03-06T18:48:31.357Z,38.80
2023-03-06T18:51:07.195Z,37.80
2023-03-06T18:53:34.704Z,40.80
2023-03-06T18:56:02.942Z,47.90
2023-03-06T18:58:29.766Z,48.00
2023-03-06T19:00:59.261Z,45.60
2023-03-06T19:03:27.054Z,37.30
2023-03-06T19:05:53.853Z,33.90
2023-03-06T19:08:21.091Z,37.40
2023-03-06T19:10:49.326Z,35.80
2023-03-06T19:13:16.342Z,48.00
2023-03-06T19:15:45.722Z,22.50
2023-03-06T19:18:15.373Z,24.60
2023-03-06T19:20:42.834Z,48.80
2023-03-06T19:23:10.434Z,37.10
2023-03-06T19:25:37.121Z,50.00
2023-03-06T19:28:04.038Z,85.60
2023-03-06T19:30:31.197Z,92.60
2023-03-06T19:33:18.856Z,62.10
2023-03-06T19:35:46.035Z,42.20
2023-03-06T19:38:14.718Z,46.20
2023-03-06T19:40:48.626Z,42.10
2023-03-06T19:43:15.408Z,29.60
2023-03-06T19:45:43.677Z,32.30
2023-03-06T19:48:12.013Z,31.50
2023-03-06T19:50:41.764Z,29.10
2023-03-06T19:53:10.584Z,39.60
2023-03-06T19:56:44.092Z,27.00
2023-03-06T19:59:11.107Z,23.20
2023-03-06T20:01:38.162Z,36.30
2023-03-06T20:04:05.367Z,39.80
2023-03-06T20:06:36.931Z,47.90
2023-03-06T20:09:07.400Z,48.80
2023-03-06T20:11:34.331Z,38.30
2023-03-06T20:14:02.605Z,27.40
2023-03-06T20:16:30.965Z,44.70
2023-03-06T20:18:59.723Z,31.50
2023-03-06T20:21:28.803Z,24.00
2023-03-06T20:23:57.663Z,25.20
2023-03-06T20:26:26.107Z,24.90
2023-03-06T20:28:54.202Z,26.90
2023-03-06T20:31:23.513Z,25.70
2023-03-06T20:33:52.424Z,22.90
2023-03-06T20:36:21.893Z,31.40
2023-03-06T20:38:49.484Z,30.90
2023-03-06T20:41:18.282Z,25.60
2023-03-06T20:43:45.344Z,36.00
2023-03-06T20:46:13.310Z,27.00
2023-03-06T20:48:41.551Z,25.80
2023-03-06T20:51:15.597Z,26.30
2023-03-06T20:56:13.927Z,29.50
2023-03-06T20:58:40.848Z,31.20
2023-03-06T21:01:07.890Z,34.80
2023-03-06T21:03:34.892Z,34.40
2023-03-06T21:06:01.826Z,21.50
2023-03-06T21:08:28.552Z,25.90
2023-03-06T21:10:55.336Z,25.00
2023-03-06T21:13:22.038Z,30.60
2023-03-06T21:15:48.812Z,30.70
2023-03-06T21:18:15.551Z,34.50
2023-03-06T21:20:42.360Z,34.30
2023-03-06T21:23:09.180Z,28.00
2023-03-06T21:25:36.287Z,47.30
2023-03-06T21:28:03.242Z,44.90
2023-03-06T21:30:29.949Z,45.50
2023-03-06T21:32:56.758Z,44.70
2023-03-06T21:35:23.554Z,47.70
2023-03-06T21:37:50.385Z,46.90
2023-03-06T21:40:17.336Z,53.50
2023-03-06T21:42:44.098Z,43.10
2023-03-06T21:45:11.581Z,37.20
2023-03-06T21:47:40.233Z,39.90
2023-03-06T21:50:09.540Z,7.50
2023-03-06T21:52:36.664Z,26.80
2023-03-06T21:55:03.741Z,26.40
2023-03-06T21:57:30.634Z,24.90
2023-03-06T21:59:57.431Z,17.00
2023-03-06T22:02:24.397Z,26.40
2023-03-06T22:04:52.338Z,49.60
2023-03-06T22:07:20.282Z,47.60
2023-03-06T22:09:47.365Z,70.60
2023-03-06T22:12:14.130Z,74.30
2023-03-06T22:14:43.085Z,78.70
2023-03-06T22:17:10.029Z,82.40
2023-03-06T22:19:36.884Z,70.90
2023-03-06T22:22:04.513Z,67.20
2023-03-06T22:24:31.507Z,60.00
2023-03-06T22:26:58.379Z,73.20
2023-03-06T22:29:25.769Z,69.90
2023-03-06T22:31:52.687Z,66.10
2023-03-06T22:34:19.530Z,59.00
2023-03-06T22:36:46.340Z,64.00
2023-03-06T22:39:14.207Z,66.30
2023-03-06T22:41:41.133Z,60.90
2023-03-06T22:44:15.410Z,52.60
2023-03-06T22:46:42.476Z,44.60
2023-03-06T22:49:11.267Z,45.70
2023-03-06T22:51:38.796Z,48.60
2023-03-06T22:54:07.308Z,43.00
2023-03-06T22:56:35.110Z,38.40
2023-03-06T22:59:02.830Z,35.00
2023-03-06T23:01:32.617Z,31.80
2023-03-06T23:04:01.779Z,26.80
2023-03-06T23:06:31.599Z,25.40
2023-03-06T23:09:05.999Z,23.60
2023-03-06T23:11:51.766Z,26.50
2023-03-06T23:14:37.343Z,25.30
2023-03-06T23:17:22.847Z,22.40
2023-03-06T23:20:09.738Z,33.00
2023-03-06T23:22:55.534Z,25.70
2023-03-06T23:25:40.882Z,25.60
2023-03-06T23:28:07.741Z,23.50
2023-03-06T23:30:34.532Z,26.30
2023-03-06T23:33:01.325Z,18.50
2023-03-06T23:35:28.211Z,27.20
2023-03-06T23:37:55.017Z,22.70
2023-03-06T23:40:22.137Z,22.10
2023-03-06T23:42:48.954Z,18.20
2023-03-06T23:45:16.315Z,22.40
2023-03-06T23:47:43.117Z,23.30
2023-03-06T23:50:10.993Z,17.20
2023-03-06T23:52:38.052Z,18.50
2023-03-06T23:55:05.763Z,16.70
2023-03-06T23:57:32.956Z,20.00
2023-03-06T23:59:59.913Z,19.50
